Ardrishaig, United Kingdom
Current Conditions -  °F | °C
As of 12:20 AM on Friday 19 Dec 2014 (Local Time) from EGPI Reporting Station
Scattered Clouds Scattered Clouds  
Wind Chill:   Ceiling: Unl
Heat Index:   Visibility: 6mi
Dew Point:   Wind: 30mph
Humidity: 76%   Direction: 270°W
Pressure: 29.53"   Gusts: 46mph
Location:  56.02°N, 5.45°W
Report Text: EGPI 190020Z AUTO 27026G40KT 9999 SCT046/// 06/02 Q1000
Loading
Personal Weather Stations






























Interactive Weather Map New forecast layout! Learn more

10-Day Weather Forecast

Advertisements
Track Severe Weather on mobile